Time;durP1;ratioP1;P1;durP2;ratioP2;P2;SDS_P1;SDS_P2;PMS_P1;PMS_P2;Temp;Humidity;BMP_temperature;BMP_pressure;BME280_temperature;BME280_humidity;BME280_pressure;Samples;Min_cycle;Max_cycle;Signal;HPM_P1;HPM_P2
2023/06/25 00:01:02;;;;;;;31.75;21.23;;;19.70;99.90;;;;;;5044586;28;20059;-73
2023/06/25 00:03:28;;;;;;;26.75;20.08;;;19.60;99.90;;;;;;5044833;28;20081;-71
2023/06/25 00:05:54;;;;;;;31.42;19.33;;;19.60;99.90;;;;;;5044714;28;20044;-72
2023/06/25 00:08:19;;;;;;;24.85;17.83;;;19.60;99.90;;;;;;5043267;28;20026;-70
2023/06/25 00:10:45;;;;;;;23.27;17.20;;;19.60;99.90;;;;;;5044896;28;20044;-72
2023/06/25 00:13:11;;;;;;;24.27;16.85;;;19.50;99.90;;;;;;5044323;28;20037;-73
2023/06/25 00:15:36;;;;;;;25.50;16.15;;;19.50;99.90;;;;;;5044623;28;20026;-73
2023/06/25 00:18:02;;;;;;;22.25;16.20;;;19.40;99.90;;;;;;5044606;28;20108;-72
2023/06/25 00:20:28;;;;;;;23.67;15.48;;;19.40;99.90;;;;;;5044435;28;20060;-73
2023/06/25 00:22:54;;;;;;;26.38;15.32;;;19.30;99.90;;;;;;5044549;28;20080;-72
2023/06/25 00:25:19;;;;;;;24.65;15.93;;;19.30;99.90;;;;;;5044811;28;20080;-72
2023/06/25 00:27:48;;;;;;;23.80;15.30;;;19.30;99.90;;;;;;5044064;28;20037;-70
2023/06/25 00:30:17;;;;;;;20.85;14.93;;;19.20;99.90;;;;;;5044383;28;20033;-71
2023/06/25 00:32:45;;;;;;;23.40;14.98;;;19.30;99.90;;;;;;5044251;28;20017;-73
2023/06/25 00:35:12;;;;;;;24.02;14.65;;;19.30;99.90;;;;;;5046419;28;20069;-72
2023/06/25 00:37:41;;;;;;;20.30;14.82;;;19.30;99.90;;;;;;5048594;28;20089;-73
2023/06/25 00:40:08;;;;;;;20.45;14.95;;;19.30;99.90;;;;;;5046920;28;20068;-72
2023/06/25 00:42:41;;;;;;;22.92;14.75;;;19.20;99.90;;;;;;5048007;28;20032;-73
2023/06/25 00:45:09;;;;;;;21.75;15.88;;;19.20;99.90;;;;;;5048337;28;20049;-72
2023/06/25 00:47:35;;;;;;;22.70;15.18;;;19.20;99.90;;;;;;5046752;28;20030;-72
2023/06/25 00:50:02;;;;;;;22.20;16.40;;;19.10;99.90;;;;;;5048225;28;20029;-71
2023/06/25 00:52:28;;;;;;;22.58;15.35;;;19.10;99.90;;;;;;5046854;28;20026;-73
2023/06/25 00:54:54;;;;;;;22.65;15.30;;;19.00;99.90;;;;;;5046734;28;20026;-72
2023/06/25 00:57:21;;;;;;;21.73;15.13;;;19.10;99.90;;;;;;5048495;28;20032;-73
2023/06/25 00:59:48;;;;;;;24.05;15.15;;;19.10;99.90;;;;;;5048029;28;20018;-71
2023/06/25 01:02:46;;;;;;;22.25;15.15;;;19.10;99.90;;;;;;5046312;28;20041;-70
2023/06/25 01:05:27;;;;;;;21.45;15.38;;;19.10;99.90;;;;;;5048050;28;20030;-73
2023/06/25 01:07:57;;;;;;;24.65;15.52;;;19.10;99.90;;;;;;5047754;28;20022;-75
2023/06/25 01:10:23;;;;;;;20.58;13.90;;;19.10;99.90;;;;;;5047663;28;20026;-71
2023/06/25 01:12:48;;;;;;;21.10;15.05;;;19.00;99.90;;;;;;5047957;28;20079;-71
2023/06/25 01:15:14;;;;;;;21.20;14.35;;;19.00;99.90;;;;;;5047560;28;20092;-73
2023/06/25 01:17:40;;;;;;;24.10;15.15;;;19.00;99.90;;;;;;5047665;28;20552;-72
2023/06/25 01:20:12;;;;;;;21.73;15.50;;;19.00;99.90;;;;;;5047755;28;20037;-71
2023/06/25 01:22:40;;;;;;;21.60;15.68;;;18.90;99.90;;;;;;5047253;28;20470;-71
2023/06/25 01:25:07;;;;;;;25.77;16.95;;;18.90;99.90;;;;;;5047397;28;20056;-73
2023/06/25 01:27:36;;;;;;;22.63;15.23;;;18.90;99.90;;;;;;5047597;28;20080;-70
2023/06/25 01:30:03;;;;;;;24.45;16.05;;;18.90;99.90;;;;;;5045923;28;20116;-72
2023/06/25 01:32:29;;;;;;;22.27;15.48;;;18.90;99.90;;;;;;5047322;28;20033;-71
2023/06/25 01:34:55;;;;;;;22.90;15.70;;;18.80;99.90;;;;;;5047441;28;20026;-72
2023/06/25 01:37:20;;;;;;;20.35;15.15;;;18.80;99.90;;;;;;5046979;28;20041;-71
2023/06/25 01:39:52;;;;;;;20.42;14.70;;;18.90;99.90;;;;;;5045736;28;20049;-70
2023/06/25 01:42:18;;;;;;;25.90;15.43;;;18.80;99.90;;;;;;5047285;28;20037;-72
2023/06/25 01:44:43;;;;;;;24.38;15.27;;;18.70;99.90;;;;;;5046783;28;20566;-71
2023/06/25 01:47:09;;;;;;;22.98;14.95;;;18.70;99.90;;;;;;5045780;28;20026;-72
2023/06/25 01:49:34;;;;;;;22.55;14.82;;;18.70;99.90;;;;;;5045742;28;20033;-72
2023/06/25 01:52:01;;;;;;;21.75;15.50;;;18.60;99.90;;;;;;5045263;28;20026;-75
2023/06/25 01:54:27;;;;;;;22.48;15.48;;;18.60;99.90;;;;;;5046982;28;20032;-72
2023/06/25 01:56:53;;;;;;;25.10;16.40;;;18.50;99.90;;;;;;5047287;28;20048;-73
2023/06/25 01:59:18;;;;;;;23.67;15.13;;;18.50;99.90;;;;;;5046813;28;20026;-72
2023/06/25 02:01:44;;;;;;;22.48;15.45;;;18.50;99.90;;;;;;5046922;28;20041;-71
2023/06/25 02:04:09;;;;;;;22.92;14.88;;;18.40;99.90;;;;;;5046930;28;20040;-73
2023/06/25 02:06:35;;;;;;;22.55;15.38;;;18.40;99.90;;;;;;5046414;28;20029;-72
2023/06/25 02:09:01;;;;;;;20.98;15.07;;;18.40;99.90;;;;;;5046831;28;20029;-74
2023/06/25 02:11:26;;;;;;;20.77;14.93;;;18.40;99.90;;;;;;5046485;28;20030;-73
2023/06/25 02:13:53;;;;;;;27.10;15.65;;;18.40;99.90;;;;;;5046725;28;20034;-73
2023/06/25 02:16:18;;;;;;;19.75;14.25;;;18.40;99.90;;;;;;5045595;28;20034;-70
2023/06/25 02:18:44;;;;;;;23.05;15.25;;;18.40;99.90;;;;;;5046252;28;20470;-72
2023/06/25 02:21:10;;;;;;;23.10;15.48;;;18.30;99.90;;;;;;5046464;28;20048;-70
2023/06/25 02:23:35;;;;;;;25.60;15.30;;;18.30;99.90;;;;;;5046362;28;20052;-74
2023/06/25 02:26:01;;;;;;;23.17;15.95;;;18.30;99.90;;;;;;5046153;28;20056;-72
2023/06/25 02:28:26;;;;;;;26.15;15.23;;;18.30;99.90;;;;;;5046514;28;20029;-72
2023/06/25 02:30:52;;;;;;;23.20;15.50;;;18.30;99.90;;;;;;5046520;28;20065;-71
2023/06/25 02:33:18;;;;;;;23.13;15.85;;;18.20;99.90;;;;;;5046005;28;20056;-72
2023/06/25 02:35:43;;;;;;;28.63;16.05;;;18.20;99.90;;;;;;5044802;28;20098;-72
2023/06/25 02:38:09;;;;;;;22.98;15.85;;;18.30;99.90;;;;;;5044585;28;20045;-72
2023/06/25 02:40:35;;;;;;;24.35;16.38;;;18.20;99.90;;;;;;5045812;28;20037;-70
2023/06/25 02:43:01;;;;;;;27.40;15.73;;;18.20;99.90;;;;;;5045954;28;20030;-72
2023/06/25 02:45:27;;;;;;;26.63;15.15;;;18.20;99.90;;;;;;5045950;28;20100;-73
2023/06/25 02:47:53;;;;;;;27.92;16.38;;;18.20;99.90;;;;;;5046163;28;20136;-71
2023/06/25 02:50:18;;;;;;;24.50;15.27;;;18.20;99.90;;;;;;5045905;28;20041;-71
2023/06/25 02:52:44;;;;;;;23.52;15.13;;;18.10;99.90;;;;;;5045582;28;20033;-72
2023/06/25 02:55:10;;;;;;;25.80;15.35;;;18.10;99.90;;;;;;5045802;28;20028;-72
2023/06/25 02:57:36;;;;;;;23.40;15.00;;;18.20;99.90;;;;;;5045463;28;20078;-73
2023/06/25 03:00:04;;;;;;;25.75;16.33;;;18.10;99.90;;;;;;5045393;28;20051;-73
2023/06/25 03:02:30;;;;;;;24.38;15.52;;;18.00;99.90;;;;;;5044261;28;20131;-72
2023/06/25 03:04:56;;;;;;;28.83;15.48;;;18.10;99.90;;;;;;5045807;28;20434;-73
2023/06/25 03:07:21;;;;;;;28.83;16.20;;;18.00;99.90;;;;;;5045575;28;20026;-72
2023/06/25 03:09:47;;;;;;;27.88;15.07;;;18.00;99.90;;;;;;5044276;28;20029;-71
2023/06/25 03:12:12;;;;;;;25.20;14.80;;;18.00;99.90;;;;;;5044312;28;20504;-71
2023/06/25 03:14:39;;;;;;;24.63;14.90;;;18.00;99.90;;;;;;5045224;28;20053;-70
2023/06/25 03:17:05;;;;;;;23.10;15.23;;;17.90;99.90;;;;;;5045367;28;20096;-73
2023/06/25 03:19:31;;;;;;;28.65;16.55;;;17.90;99.90;;;;;;5045320;28;20470;-73
2023/06/25 03:21:56;;;;;;;26.00;16.55;;;17.90;99.90;;;;;;5043645;28;20072;-71
2023/06/25 03:24:22;;;;;;;31.80;17.83;;;17.90;99.90;;;;;;5045279;28;20032;-74
2023/06/25 03:26:48;;;;;;;27.63;17.38;;;17.90;99.90;;;;;;5045349;28;20029;-71
2023/06/25 03:29:13;;;;;;;29.88;18.27;;;17.90;99.90;;;;;;5044768;28;20116;-72
2023/06/25 03:31:39;;;;;;;27.83;17.90;;;17.90;99.90;;;;;;5045145;28;20072;-71
2023/06/25 03:34:04;;;;;;;26.75;17.40;;;17.90;99.90;;;;;;5043786;28;20038;-75
2023/06/25 03:36:30;;;;;;;29.60;17.83;;;17.90;99.90;;;;;;5044776;28;20033;-74
2023/06/25 03:38:57;;;;;;;31.77;18.45;;;17.90;99.90;;;;;;5045111;28;20045;-74
2023/06/25 03:41:22;;;;;;;32.53;19.70;;;17.90;99.90;;;;;;5045195;28;20113;-74
2023/06/25 03:43:48;;;;;;;29.33;19.23;;;17.80;99.90;;;;;;5043311;28;20045;-73
2023/06/25 03:46:14;;;;;;;32.28;19.45;;;17.90;99.90;;;;;;5043730;28;20518;-70
2023/06/25 03:48:41;;;;;;;30.92;19.50;;;17.90;99.90;;;;;;5043403;28;20532;-71
2023/06/25 03:51:07;;;;;;;31.33;20.48;;;17.90;99.90;;;;;;5044471;28;20021;-71
2023/06/25 03:53:32;;;;;;;31.00;20.05;;;17.80;99.90;;;;;;5043667;28;20095;-71
2023/06/25 03:55:58;;;;;;;32.38;19.60;;;17.90;99.90;;;;;;5043473;28;20093;-74
2023/06/25 03:58:23;;;;;;;35.75;21.75;;;17.90;99.90;;;;;;5044589;28;20033;-72
2023/06/25 04:00:49;;;;;;;35.05;22.17;;;17.90;99.90;;;;;;5044880;28;20053;-70
2023/06/25 04:03:14;;;;;;;35.72;21.17;;;17.90;99.90;;;;;;5043446;28;20033;-73
2023/06/25 04:05:40;;;;;;;32.65;21.52;;;17.90;99.90;;;;;;5044522;28;20029;-71
2023/06/25 04:08:05;;;;;;;36.72;23.00;;;17.90;99.90;;;;;;5044558;28;20033;-72
2023/06/25 04:10:31;;;;;;;35.22;22.38;;;17.90;99.90;;;;;;5043725;28;20025;-71
2023/06/25 04:12:57;;;;;;;34.50;22.70;;;18.00;99.90;;;;;;5043300;28;20022;-72
2023/06/25 04:15:22;;;;;;;38.03;25.05;;;18.00;99.90;;;;;;5044862;28;20033;-71
2023/06/25 04:17:48;;;;;;;42.05;26.33;;;18.00;99.90;;;;;;5043054;28;20025;-70
2023/06/25 04:20:14;;;;;;;40.72;25.90;;;18.10;99.90;;;;;;5044420;28;20081;-74
2023/06/25 04:22:39;;;;;;;40.33;26.10;;;18.00;99.90;;;;;;5044529;28;20085;-73
2023/06/25 04:25:05;;;;;;;39.20;25.60;;;18.10;99.90;;;;;;5044182;28;20021;-72
2023/06/25 04:27:31;;;;;;;39.60;25.58;;;18.10;99.90;;;;;;5044378;28;20052;-73
2023/06/25 04:29:57;;;;;;;42.13;25.45;;;18.10;99.90;;;;;;5044556;28;20025;-73
2023/06/25 04:32:22;;;;;;;39.53;26.52;;;18.10;99.90;;;;;;5042918;28;20033;-73
2023/06/25 04:34:48;;;;;;;39.20;25.65;;;18.20;99.90;;;;;;5043040;28;20089;-70
2023/06/25 04:37:14;;;;;;;37.33;24.33;;;18.20;99.90;;;;;;5044314;28;20037;-72
2023/06/25 04:39:40;;;;;;;36.00;24.90;;;18.20;99.90;;;;;;5042660;28;20103;-72
2023/06/25 04:42:06;;;;;;;33.63;22.48;;;18.30;99.90;;;;;;5042851;28;20044;-72
2023/06/25 04:44:31;;;;;;;35.53;23.42;;;18.30;99.90;;;;;;5044180;28;20026;-71
2023/06/25 04:46:57;;;;;;;39.25;22.25;;;18.30;99.90;;;;;;5044059;28;20119;-71
2023/06/25 04:49:23;;;;;;;35.50;23.27;;;18.30;99.90;;;;;;5042903;28;20089;-72
2023/06/25 04:51:48;;;;;;;32.60;22.83;;;18.40;99.90;;;;;;5043430;28;20033;-71
2023/06/25 04:54:14;;;;;;;30.80;21.23;;;18.40;99.90;;;;;;5042447;28;20053;-70
2023/06/25 04:56:39;;;;;;;32.22;21.90;;;18.50;99.90;;;;;;5042924;28;20033;-69
2023/06/25 04:59:05;;;;;;;32.10;19.98;;;18.50;99.90;;;;;;5044078;28;20060;-70
2023/06/25 05:01:30;;;;;;;28.17;18.35;;;18.50;99.90;;;;;;5043883;28;20448;-71
2023/06/25 05:03:56;;;;;;;28.95;19.90;;;18.60;99.90;;;;;;5043918;28;20041;-70
2023/06/25 05:06:22;;;;;;;28.25;18.35;;;18.60;99.90;;;;;;5044391;28;20426;-71
2023/06/25 05:08:47;;;;;;;24.45;17.75;;;18.70;99.90;;;;;;5043947;28;20386;-70
2023/06/25 05:11:13;;;;;;;24.70;16.42;;;18.70;99.90;;;;;;5043960;28;20056;-71
2023/06/25 05:13:38;;;;;;;27.85;17.23;;;18.70;99.90;;;;;;5044162;28;20032;-70
2023/06/25 05:16:04;;;;;;;26.23;17.42;;;18.70;99.90;;;;;;5043797;28;20083;-70
2023/06/25 05:18:30;;;;;;;24.75;17.13;;;18.80;99.90;;;;;;5043777;28;20040;-71
2023/06/25 05:20:55;;;;;;;28.83;16.85;;;18.80;99.90;;;;;;5045762;28;20064;-70
2023/06/25 05:23:21;;;;;;;23.40;17.17;;;18.80;99.90;;;;;;5047629;28;20030;-72
2023/06/25 05:25:47;;;;;;;27.83;18.13;;;18.80;99.90;;;;;;5047803;28;20083;-69
2023/06/25 05:28:12;;;;;;;24.48;15.98;;;18.90;99.90;;;;;;5038381;28;20036;-69
2023/06/25 05:30:38;;;;;;;26.92;17.13;;;19.00;99.90;;;;;;5046044;28;20061;-69
2023/06/25 05:33:04;;;;;;;27.92;17.50;;;19.00;99.90;;;;;;5047425;28;20030;-70
2023/06/25 05:35:29;;;;;;;24.15;15.85;;;19.10;99.90;;;;;;5047696;28;20040;-72
2023/06/25 05:37:58;;;;;;;26.90;17.13;;;19.10;99.90;;;;;;5046890;28;20025;-70
2023/06/25 05:40:26;;;;;;;25.48;16.20;;;19.20;99.90;;;;;;5029518;28;20390;-71
2023/06/25 05:42:54;;;;;;;31.58;18.85;;;19.20;99.90;;;;;;5029459;28;20120;-72
2023/06/25 05:45:19;;;;;;;26.25;17.08;;;19.30;99.90;;;;;;5047100;28;20121;-69
2023/06/25 05:47:45;;;;;;;27.42;17.30;;;19.30;99.90;;;;;;5047362;28;20037;-70
2023/06/25 05:50:10;;;;;;;26.10;18.17;;;19.30;99.90;;;;;;5046992;28;20033;-70
2023/06/25 05:52:36;;;;;;;29.85;18.58;;;19.40;99.90;;;;;;5047132;28;20029;-69
2023/06/25 05:55:01;;;;;;;27.05;17.95;;;19.40;99.90;;;;;;5047038;28;20052;-73
2023/06/25 05:57:27;;;;;;;30.85;18.35;;;19.50;99.90;;;;;;5046782;28;20032;-73
2023/06/25 05:59:53;;;;;;;27.10;17.98;;;19.50;99.90;;;;;;5029098;28;20029;-72
2023/06/25 06:02:18;;;;;;;27.08;16.88;;;19.50;99.90;;;;;;5046859;28;20029;-70
2023/06/25 06:04:44;;;;;;;27.67;19.38;;;19.60;99.90;;;;;;5046788;28;20033;-69
2023/06/25 06:07:10;;;;;;;27.23;17.80;;;19.70;99.90;;;;;;5046674;28;20048;-69
2023/06/25 06:09:35;;;;;;;26.80;18.05;;;19.70;99.90;;;;;;5046753;28;20037;-69
2023/06/25 06:12:01;;;;;;;26.98;18.00;;;19.80;99.90;;;;;;5046471;28;20061;-69
2023/06/25 06:14:26;;;;;;;27.02;19.00;;;19.90;99.90;;;;;;5046777;28;20367;-70
2023/06/25 06:16:52;;;;;;;26.55;17.25;;;20.00;99.90;;;;;;5046800;28;20041;-70
2023/06/25 06:19:18;;;;;;;29.15;18.58;;;20.00;99.90;;;;;;5046540;28;20049;-69
2023/06/25 06:21:43;;;;;;;24.52;17.13;;;20.10;99.90;;;;;;5046902;28;20410;-70
2023/06/25 06:24:09;;;;;;;26.40;17.55;;;20.20;99.90;;;;;;5037631;28;20033;-71
2023/06/25 06:26:35;;;;;;;25.38;17.85;;;20.30;99.90;;;;;;5033915;28;20036;-69
2023/06/25 06:29:03;;;;;;;26.55;16.33;;;20.30;99.90;;;;;;5041649;28;20022;-68
2023/06/25 06:31:32;;;;;;;23.60;16.50;;;20.40;99.90;;;;;;5044155;28;20524;-70
2023/06/25 06:33:58;;;;;;;21.30;14.23;;;20.40;99.90;;;;;;5045157;28;20536;-70
2023/06/25 06:36:24;;;;;;;26.20;18.35;;;20.40;99.90;;;;;;5046804;28;20466;-69
2023/06/25 06:38:50;;;;;;;24.27;15.68;;;20.50;99.90;;;;;;5045412;28;20080;-68
2023/06/25 06:41:16;;;;;;;25.80;17.60;;;20.60;99.90;;;;;;5039725;28;20505;-70
2023/06/25 06:43:41;;;;;;;27.08;16.42;;;20.70;99.90;;;;;;5046222;28;20091;-69
2023/06/25 06:46:07;;;;;;;24.02;16.23;;;20.70;99.90;;;;;;5041160;28;20159;-70
2023/06/25 06:48:32;;;;;;;25.75;15.77;;;20.80;99.90;;;;;;5046525;28;20053;-70
2023/06/25 06:50:58;;;;;;;26.55;18.17;;;20.90;99.90;;;;;;5028541;28;20099;-68
2023/06/25 06:53:25;;;;;;;25.35;17.33;;;21.00;99.90;;;;;;5045966;28;20409;-69
2023/06/25 06:55:51;;;;;;;19.98;13.98;;;21.10;99.90;;;;;;5046708;28;20021;-73
2023/06/25 06:58:17;;;;;;;21.45;13.95;;;21.10;99.90;;;;;;5046203;28;20026;-68
2023/06/25 07:00:43;;;;;;;22.63;15.07;;;21.20;99.90;;;;;;5045284;28;20057;-69
2023/06/25 07:03:08;;;;;;;28.15;16.55;;;21.30;99.90;;;;;;5045881;28;20101;-70
2023/06/25 07:05:34;;;;;;;23.45;14.77;;;21.30;99.90;;;;;;5045925;28;20059;-68
2023/06/25 07:08:00;;;;;;;25.42;16.27;;;21.40;99.90;;;;;;5045668;28;20033;-69
2023/06/25 07:10:25;;;;;;;22.02;16.73;;;21.50;99.90;;;;;;5046075;28;20029;-71
2023/06/25 07:12:51;;;;;;;23.90;15.43;;;21.50;99.90;;;;;;5045815;28;20030;-71
2023/06/25 07:15:16;;;;;;;21.58;14.55;;;21.60;99.90;;;;;;5045393;28;20037;-72
2023/06/25 07:17:42;;;;;;;21.88;14.90;;;21.60;99.90;;;;;;5045870;28;20108;-70
2023/06/25 07:20:08;;;;;;;24.23;14.60;;;21.80;99.90;;;;;;5036985;28;20029;-70
2023/06/25 07:22:34;;;;;;;19.80;14.98;;;21.80;99.90;;;;;;5045245;28;20033;-70
2023/06/25 07:25:02;;;;;;;21.08;15.02;;;22.00;99.90;;;;;;5045549;28;20033;-71
2023/06/25 07:27:28;;;;;;;23.15;15.95;;;22.10;99.90;;;;;;5027670;28;20032;-68
2023/06/25 07:29:54;;;;;;;20.52;14.82;;;22.10;99.90;;;;;;5045300;28;20026;-71
2023/06/25 07:32:19;;;;;;;23.10;15.57;;;22.20;99.90;;;;;;5045743;28;20025;-68
2023/06/25 07:34:45;;;;;;;21.92;14.50;;;22.30;99.90;;;;;;5044825;28;20553;-72
2023/06/25 07:37:10;;;;;;;19.50;13.52;;;22.30;99.90;;;;;;5045167;28;20029;-71
2023/06/25 07:39:36;;;;;;;19.83;13.93;;;22.40;99.90;;;;;;5043425;28;20087;-70
2023/06/25 07:42:02;;;;;;;19.40;15.07;;;22.50;99.90;;;;;;5044485;28;20068;-70
2023/06/25 07:44:27;;;;;;;20.70;15.45;;;22.60;99.90;;;;;;5045142;28;20028;-70
2023/06/25 07:46:53;;;;;;;21.63;15.15;;;22.70;99.90;;;;;;5045246;28;20081;-71
2023/06/25 07:49:19;;;;;;;19.35;14.68;;;22.70;99.90;;;;;;5044830;28;20059;-69
2023/06/25 07:51:45;;;;;;;21.80;14.38;;;22.80;99.90;;;;;;5044861;28;20036;-70
2023/06/25 07:54:12;;;;;;;17.00;13.52;;;22.90;99.90;;;;;;5044942;28;20077;-72
2023/06/25 07:56:37;;;;;;;23.35;14.38;;;23.00;99.90;;;;;;5044532;28;20029;-76
2023/06/25 07:59:03;;;;;;;18.17;15.18;;;23.00;99.90;;;;;;5044837;28;20077;-70
2023/06/25 08:01:29;;;;;;;19.25;14.43;;;23.00;99.90;;;;;;5043436;28;20449;-70
2023/06/25 08:03:56;;;;;;;22.27;14.13;;;23.10;99.90;;;;;;5044566;28;20030;-68
2023/06/25 08:06:21;;;;;;;18.38;12.32;;;23.20;99.90;;;;;;5045167;28;20057;-73
2023/06/25 08:08:47;;;;;;;19.20;14.45;;;23.30;99.90;;;;;;5043368;28;20026;-71
2023/06/25 08:11:13;;;;;;;19.00;15.43;;;23.40;99.90;;;;;;5044473;28;20025;-72
2023/06/25 08:13:39;;;;;;;15.98;12.80;;;23.40;99.90;;;;;;5044780;28;20045;-75
2023/06/25 08:16:04;;;;;;;18.08;12.60;;;23.50;99.90;;;;;;5044449;28;20115;-69
2023/06/25 08:18:30;;;;;;;18.77;13.85;;;23.50;99.90;;;;;;5044541;28;20085;-72
2023/06/25 08:20:55;;;;;;;20.65;15.40;;;23.60;99.90;;;;;;5043217;28;20043;-70
2023/06/25 08:23:21;;;;;;;22.40;14.23;;;23.70;99.90;;;;;;5044513;28;20025;-71
2023/06/25 08:25:47;;;;;;;17.65;12.05;;;23.80;99.90;;;;;;5044352;28;20030;-70
2023/06/25 08:28:13;;;;;;;16.35;12.73;;;23.80;99.90;;;;;;5044578;28;20057;-69
2023/06/25 08:30:39;;;;;;;19.38;12.35;;;23.90;99.90;;;;;;5044101;28;20044;-70
2023/06/25 08:33:04;;;;;;;15.93;11.70;;;24.00;99.90;;;;;;5042876;28;20036;-69
2023/06/25 08:35:30;;;;;;;18.25;11.43;;;24.00;99.90;;;;;;5043230;28;20392;-73
2023/06/25 08:37:56;;;;;;;13.82;10.50;;;24.10;99.90;;;;;;5042536;28;20025;-71
2023/06/25 08:40:22;;;;;;;19.05;11.35;;;24.20;99.90;;;;;;5044656;28;20029;-73
2023/06/25 08:42:49;;;;;;;17.55;12.38;;;24.20;99.90;;;;;;5044481;28;20041;-72
2023/06/25 08:45:14;;;;;;;15.07;11.60;;;24.30;99.90;;;;;;5044170;28;20030;-71
2023/06/25 08:47:41;;;;;;;23.48;13.85;;;24.30;99.90;;;;;;5044368;28;20048;-70
2023/06/25 08:50:09;;;;;;;14.77;11.25;;;24.40;99.90;;;;;;5044110;28;20022;-69
2023/06/25 08:52:35;;;;;;;15.30;10.88;;;24.50;99.90;;;;;;5042646;28;20057;-70
2023/06/25 08:55:01;;;;;;;14.02;10.80;;;24.50;99.90;;;;;;5044387;28;20030;-73
2023/06/25 08:57:27;;;;;;;16.60;11.60;;;24.60;99.90;;;;;;5048228;28;20504;-70
2023/06/25 08:59:52;;;;;;;13.18;10.40;;;24.70;99.90;;;;;;5048086;28;20089;-71
2023/06/25 09:02:18;;;;;;;15.00;10.75;;;24.70;99.90;;;;;;5030269;28;20044;-72
2023/06/25 09:04:46;;;;;;;12.10;10.77;;;24.80;99.90;;;;;;5029924;28;20029;-71
2023/06/25 09:07:16;;;;;;;15.10;10.25;;;24.90;99.90;;;;;;5046299;28;20036;-69
2023/06/25 09:09:53;;;;;;;14.15;11.25;;;25.00;99.90;;;;;;5029527;28;20029;-75
2023/06/25 09:12:25;;;;;;;21.38;11.88;;;25.10;99.90;;;;;;5029590;28;20600;-71
2023/06/25 09:14:51;;;;;;;16.00;10.38;;;25.20;99.90;;;;;;5047155;28;20033;-71
2023/06/25 09:17:22;;;;;;;16.67;11.35;;;25.30;99.90;;;;;;5025994;28;20561;-71
2023/06/25 09:19:48;;;;;;;13.15;9.55;;;25.40;99.90;;;;;;5040771;28;20582;-71
2023/06/25 09:22:14;;;;;;;16.50;10.73;;;25.50;99.90;;;;;;5017129;28;20096;-71
2023/06/25 09:24:44;;;;;;;16.27;10.20;;;25.60;99.90;;;;;;5038429;28;20052;-73
2023/06/25 09:27:10;;;;;;;13.57;9.50;;;25.60;99.90;;;;;;5027712;28;20529;-71
2023/06/25 09:29:37;;;;;;;16.02;9.30;;;25.70;99.90;;;;;;5045547;28;20021;-74
2023/06/25 09:32:10;;;;;;;12.38;8.55;;;25.70;99.90;;;;;;5037860;28;20057;-70
2023/06/25 09:34:37;;;;;;;13.07;8.65;;;25.80;99.90;;;;;;5038514;28;20021;-72
2023/06/25 09:37:03;;;;;;;10.18;9.02;;;25.90;99.90;;;;;;5028701;28;20093;-71
2023/06/25 09:39:30;;;;;;;10.65;8.20;;;25.90;99.90;;;;;;5035781;28;20050;-72
2023/06/25 09:41:56;;;;;;;13.55;8.73;;;26.00;99.90;;;;;;5037607;28;20475;-72
2023/06/25 09:44:22;;;;;;;12.90;8.60;;;26.10;99.90;;;;;;5046111;28;20024;-74
2023/06/25 09:46:52;;;;;;;11.07;8.40;;;26.20;99.90;;;;;;5035501;28;20042;-72
2023/06/25 09:49:19;;;;;;;11.23;8.60;;;26.40;99.90;;;;;;5047063;28;20029;-72
2023/06/25 09:51:57;;;;;;;12.48;9.05;;;26.40;99.90;;;;;;5028991;28;20021;-72
2023/06/25 09:54:24;;;;;;;9.25;8.27;;;26.40;99.90;;;;;;5046927;28;20081;-73
2023/06/25 09:56:51;;;;;;;9.70;8.07;;;26.30;99.90;;;;;;5045013;28;20029;-71
2023/06/25 09:59:16;;;;;;;9.73;8.73;;;26.20;99.90;;;;;;5033802;28;20060;-71
2023/06/25 10:01:42;;;;;;;14.05;8.30;;;26.20;99.90;;;;;;5044425;28;20420;-71
2023/06/25 10:04:08;;;;;;;11.50;9.52;;;26.20;99.90;;;;;;5046512;28;20045;-75
2023/06/25 10:06:35;;;;;;;10.25;9.10;;;26.30;99.90;;;;;;5045717;28;20025;-74
2023/06/25 10:09:03;;;;;;;11.80;9.65;;;26.20;99.90;;;;;;5045853;28;20028;-71
2023/06/25 10:11:29;;;;;;;11.38;9.05;;;26.10;99.90;;;;;;5035101;28;20028;-71
2023/06/25 10:13:57;;;;;;;13.10;9.18;;;26.20;99.90;;;;;;5045371;28;20049;-73
2023/06/25 10:16:23;;;;;;;10.82;9.15;;;26.30;99.90;;;;;;5030184;28;20044;-74
2023/06/25 10:18:54;;;;;;;10.32;8.68;;;26.40;99.90;;;;;;5044171;28;20425;-71
2023/06/25 10:21:22;;;;;;;15.50;10.43;;;26.50;99.90;;;;;;5045844;28;20067;-72
2023/06/25 10:23:57;;;;;;;14.43;8.98;;;26.70;99.90;;;;;;5043722;28;20018;-71
2023/06/25 10:26:30;;;;;;;11.77;8.70;;;26.80;99.90;;;;;;5045884;28;20033;-71
2023/06/25 10:29:00;;;;;;;11.15;9.07;;;26.80;99.90;;;;;;5037389;28;20041;-74
2023/06/25 10:31:35;;;;;;;10.48;8.48;;;26.90;99.90;;;;;;5018071;28;20029;-72
2023/06/25 10:34:08;;;;;;;10.52;8.20;;;27.00;99.90;;;;;;5019636;28;20026;-74
2023/06/25 10:36:34;;;;;;;10.55;8.30;;;27.00;99.90;;;;;;5045802;28;20032;-73
2023/06/25 10:39:00;;;;;;;12.05;8.00;;;27.10;99.90;;;;;;5040644;28;20041;-71
2023/06/25 10:41:30;;;;;;;10.93;8.52;;;27.10;99.90;;;;;;5033035;28;20042;-74
2023/06/25 10:43:57;;;;;;;12.07;8.88;;;27.10;99.90;;;;;;5036457;28;20037;-74
2023/06/25 10:46:32;;;;;;;10.52;9.05;;;27.10;99.90;;;;;;5041038;28;20030;-71
2023/06/25 10:49:01;;;;;;;14.00;9.57;;;27.20;99.90;;;;;;5040732;28;20121;-72
2023/06/25 10:51:28;;;;;;;10.82;9.38;;;27.20;99.90;;;;;;5027892;28;20063;-71
2023/06/25 10:53:55;;;;;;;11.40;8.38;;;27.30;99.90;;;;;;5045907;28;20028;-73
2023/06/25 10:56:22;;;;;;;11.75;8.93;;;27.40;99.90;;;;;;5045740;28;20498;-74
2023/06/25 10:58:54;;;;;;;10.57;8.90;;;27.50;99.90;;;;;;5038125;28;20045;-71
2023/06/25 11:01:19;;;;;;;11.05;8.63;;;27.60;99.90;;;;;;5045919;28;20449;-73
2023/06/25 11:03:45;;;;;;;9.73;7.95;;;27.80;99.90;;;;;;5045467;28;20038;-72
2023/06/25 11:06:10;;;;;;;10.88;8.00;;;27.80;99.90;;;;;;5045789;28;20089;-71
2023/06/25 11:08:36;;;;;;;8.95;8.05;;;27.80;99.90;;;;;;5045480;28;20139;-71
2023/06/25 11:11:03;;;;;;;8.07;7.28;;;27.80;99.90;;;;;;5027842;28;20164;-75
2023/06/25 11:13:32;;;;;;;11.27;8.50;;;27.80;99.90;;;;;;5027917;28;20036;-73
2023/06/25 11:15:57;;;;;;;8.90;7.75;;;27.90;99.90;;;;;;5027629;28;20055;-72
2023/06/25 11:18:23;;;;;;;9.80;7.45;;;27.90;99.90;;;;;;5045209;28;20029;-72
2023/06/25 11:20:49;;;;;;;9.43;8.18;;;28.10;99.90;;;;;;5045508;28;20034;-74
2023/06/25 11:23:15;;;;;;;10.05;7.55;;;28.20;99.90;;;;;;5045284;28;20529;-72
2023/06/25 11:25:40;;;;;;;9.18;7.18;;;28.30;99.90;;;;;;5045341;28;20025;-74
2023/06/25 11:28:12;;;;;;;8.82;7.72;;;28.40;99.90;;;;;;5034514;28;20037;-74
2023/06/25 11:30:37;;;;;;;12.63;7.63;;;28.50;99.90;;;;;;5043123;28;20091;-73
2023/06/25 11:33:15;;;;;;;8.70;6.95;;;28.70;99.90;;;;;;5029692;28;20421;-71
2023/06/25 11:35:50;;;;;;;13.85;7.50;;;28.80;99.90;;;;;;5044828;28;20064;-70
2023/06/25 11:38:27;;;;;;;8.95;7.53;;;28.90;99.90;;;;;;5044200;28;20042;-74
2023/06/25 11:40:56;;;;;;;9.70;8.52;;;28.90;99.90;;;;;;5030601;28;20029;-73
2023/06/25 11:43:23;;;;;;;13.98;8.48;;;28.80;99.90;;;;;;5027088;28;20033;-73
2023/06/25 11:45:49;;;;;;;9.55;7.50;;;28.60;99.90;;;;;;5045190;28;20022;-73
2023/06/25 11:48:16;;;;;;;8.13;7.32;;;28.50;99.90;;;;;;5042362;28;20638;-73
2023/06/25 11:50:47;;;;;;;10.77;7.65;;;28.60;99.90;;;;;;5043176;28;20029;-73
2023/06/25 11:53:14;;;;;;;8.85;7.38;;;28.70;99.90;;;;;;5045109;28;20029;-72
2023/06/25 11:55:40;;;;;;;9.80;7.40;;;28.90;99.90;;;;;;5044871;28;20068;-71
2023/06/25 11:58:05;;;;;;;11.10;7.50;;;29.00;99.90;;;;;;5026753;28;20021;-71
2023/06/25 12:00:31;;;;;;;7.82;6.97;;;29.10;99.90;;;;;;5026928;28;20028;-75
2023/06/25 12:02:56;;;;;;;8.10;6.45;;;29.20;99.90;;;;;;5043394;28;20033;-74
2023/06/25 12:05:22;;;;;;;9.05;6.88;;;29.00;99.90;;;;;;5044625;28;20382;-73
2023/06/25 12:07:48;;;;;;;9.15;7.47;;;28.80;99.90;;;;;;5044804;28;20036;-74
2023/06/25 12:10:13;;;;;;;9.05;7.53;;;28.70;99.90;;;;;;5026876;28;20580;-73
2023/06/25 12:12:39;;;;;;;9.05;7.10;;;28.60;99.90;;;;;;5044351;28;20478;-76
2023/06/25 12:15:05;;;;;;;10.00;7.72;;;28.70;99.90;;;;;;5044488;28;20080;-73
2023/06/25 12:17:30;;;;;;;8.13;6.45;;;28.80;99.90;;;;;;5044446;28;20071;-72
2023/06/25 12:19:56;;;;;;;9.55;7.40;;;28.90;99.90;;;;;;5043341;28;20025;-73
2023/06/25 12:22:21;;;;;;;9.63;7.32;;;29.00;99.90;;;;;;5044652;28;20036;-75
2023/06/25 12:24:47;;;;;;;12.93;6.78;;;29.10;99.90;;;;;;5042933;28;20029;-74
2023/06/25 12:27:12;;;;;;;9.65;7.10;;;29.20;99.90;;;;;;5044290;28;20033;-72